Terminal Aerodrome Forecast
Issued by NWS

Home | Current Version | Previous Version | Text Only | Print | Product List | Glossary On
Versions: 1 2 3 4 5 6 7 8 9 10 11 12 13 14 15 16 17 18 19 20 21 22 23 24 25
000
FTUS42 KMLB 282343
TAFISM
TAF
KISM 282343Z 2900/2924 25006KT 6SM -RA BR SCT025 BKN050 OVC150
     FM290200 26004KT P6SM SCT020 BKN060 OVC150
     FM291400 28008KT P6SM VCSH SCT010 SCT025 BKN150
     FM291700 28010KT P6SM VCTS SCT030CB BKN050
      AMD NOT SKED 2902/2912=

USA.gov is the U.S. government's official web portal to all federal, state and local government web resources and services.